createdAt,value
2023-01-13T00:00:15.501Z,98386.44
2023-01-13T00:02:42.265Z,98378.56
2023-01-13T00:05:10.286Z,98386.09
2023-01-13T00:07:38.324Z,98379.41
2023-01-13T00:10:05.507Z,98378.38
2023-01-13T00:12:32.226Z,98368.97
2023-01-13T00:14:58.876Z,98374.19
2023-01-13T00:17:25.506Z,98365.59
2023-01-13T00:19:52.187Z,98367.47
2023-01-13T00:22:18.796Z,98366.25
2023-01-13T00:24:45.428Z,98374.00
2023-01-13T00:27:12.105Z,98368.28
2023-01-13T00:29:38.830Z,98359.06
2023-01-13T00:32:05.527Z,98369.16
2023-01-13T00:34:33.561Z,98356.91
2023-01-13T00:37:00.273Z,98362.09
2023-01-13T00:39:26.900Z,98360.41
2023-01-13T00:42:12.225Z,98351.69
2023-01-13T00:44:38.869Z,98352.69
2023-01-13T00:47:05.527Z,98355.41
2023-01-13T00:49:32.225Z,98348.00
2023-01-13T00:51:58.821Z,98350.03
2023-01-13T00:54:25.531Z,98355.41
2023-01-13T00:56:52.151Z,98356.75
2023-01-13T00:59:18.833Z,98356.25
2023-01-13T01:01:45.744Z,98353.56
2023-01-13T01:04:12.558Z,98356.09
2023-01-13T01:06:39.233Z,98359.66
2023-01-13T01:09:06.332Z,98361.81
2023-01-13T01:11:34.219Z,98362.16
2023-01-13T01:14:02.924Z,98361.16
2023-01-13T01:16:32.626Z,98365.84
2023-01-13T01:19:00.879Z,98358.78
2023-01-13T01:21:28.647Z,98373.19
2023-01-13T01:23:55.672Z,98366.13
2023-01-13T01:26:26.557Z,98376.38
2023-01-13T01:28:53.484Z,98373.31
2023-01-13T01:31:23.138Z,98362.59
2023-01-13T01:33:50.567Z,98362.25
2023-01-13T01:36:19.744Z,98361.72
2023-01-13T01:38:46.693Z,98364.41
2023-01-13T01:41:21.907Z,98361.59
2023-01-13T01:44:08.242Z,98359.56
2023-01-13T01:46:39.323Z,98360.94
2023-01-13T01:49:21.196Z,98356.75
2023-01-13T01:52:06.072Z,98357.41
2023-01-13T01:54:44.209Z,98356.41
2023-01-13T01:57:18.112Z,98351.03
2023-01-13T01:59:45.338Z,98346.88
2023-01-13T02:02:12.379Z,98351.56
2023-01-13T02:04:50.269Z,98333.16
2023-01-13T02:07:24.061Z,98339.16
2023-01-13T02:09:52.557Z,98329.44
2023-01-13T02:12:32.259Z,98328.09
2023-01-13T02:15:16.128Z,98332.44
2023-01-13T02:18:04.974Z,98330.28
2023-01-13T02:20:59.166Z,98329.44
2023-01-13T02:24:03.452Z,98322.41
2023-01-13T02:27:02.781Z,98316.53
2023-01-13T02:30:19.536Z,98310.97
2023-01-13T02:33:07.983Z,98314.00
2023-01-13T02:36:02.692Z,98300.06
2023-01-13T02:38:35.212Z,98301.22
2023-01-13T02:41:31.220Z,98301.88
2023-01-13T02:44:10.460Z,98291.13
2023-01-13T02:46:52.062Z,98292.16
2023-01-13T02:49:34.614Z,98286.25
2023-01-13T02:52:36.529Z,98293.28
2023-01-13T02:55:10.757Z,98277.53
2023-01-13T02:57:39.710Z,98274.50
2023-01-13T03:00:09.964Z,98268.00
2023-01-13T03:02:36.910Z,98276.50
2023-01-13T03:05:03.579Z,98278.69
2023-01-13T03:07:33.207Z,98268.44
2023-01-13T03:10:26.347Z,98276.69
2023-01-13T03:13:08.179Z,98278.81
2023-01-13T03:15:48.102Z,98274.97
2023-01-13T03:18:23.715Z,98279.84
2023-01-13T03:21:04.996Z,98277.97
2023-01-13T03:23:35.072Z,98274.47
2023-01-13T03:26:15.109Z,98279.84
2023-01-13T03:29:00.123Z,98280.81
2023-01-13T03:31:34.764Z,98274.28
2023-01-13T03:34:08.377Z,98272.25
2023-01-13T03:36:37.842Z,98276.78
2023-01-13T03:39:10.908Z,98272.75
2023-01-13T03:41:52.943Z,98263.53
2023-01-13T03:44:32.857Z,98267.72
2023-01-13T03:47:19.871Z,98267.88
2023-01-13T03:50:02.040Z,98264.16
2023-01-13T03:52:33.214Z,98263.16
2023-01-13T03:55:23.130Z,98268.53
2023-01-13T03:58:20.464Z,98267.19
2023-01-13T04:00:57.164Z,98271.41
2023-01-13T04:03:38.313Z,98267.00
2023-01-13T04:06:15.956Z,98274.41
2023-01-13T04:08:53.624Z,98276.72
2023-01-13T04:11:31.350Z,98260.25
2023-01-13T04:13:59.952Z,98258.41
2023-01-13T04:16:26.762Z,98261.28
2023-01-13T04:18:53.362Z,98264.81
2023-01-13T04:21:19.995Z,98269.34
2023-01-13T04:23:46.612Z,98270.88
2023-01-13T04:26:13.171Z,98265.50
2023-01-13T04:28:40.797Z,98263.78
2023-01-13T04:31:07.581Z,98267.31
2023-01-13T04:33:34.327Z,98255.41
2023-01-13T04:36:01.000Z,98264.81
2023-01-13T04:38:27.679Z,98268.31
2023-01-13T04:40:54.297Z,98265.44
2023-01-13T04:43:20.983Z,98263.78
2023-01-13T04:45:47.633Z,98255.66
2023-01-13T04:48:14.574Z,98269.28
2023-01-13T04:50:41.487Z,98263.72
2023-01-13T04:53:08.126Z,98255.00
2023-01-13T04:55:35.312Z,98261.88
2023-01-13T04:58:07.583Z,98260.56
2023-01-13T05:00:34.508Z,98270.31
2023-01-13T05:03:01.773Z,98257.22
2023-01-13T05:05:30.070Z,98270.63
2023-01-13T05:07:57.444Z,98267.50
2023-01-13T05:10:24.952Z,98265.13
2023-01-13T05:13:10.371Z,98264.44
2023-01-13T05:15:55.571Z,98257.38
2023-01-13T05:18:22.278Z,98252.44
2023-01-13T05:20:49.694Z,98257.34
2023-01-13T05:23:34.788Z,98264.03
2023-01-13T05:26:01.601Z,98260.69
2023-01-13T05:28:32.365Z,98263.22
2023-01-13T05:30:59.575Z,98268.44
2023-01-13T05:33:26.180Z,98266.06
2023-01-13T05:35:52.797Z,98261.00
2023-01-13T05:38:19.522Z,98253.47
2023-01-13T05:41:04.657Z,98247.25
2023-01-13T05:43:33.085Z,98255.63
2023-01-13T05:46:08.767Z,98237.34
2023-01-13T05:48:40.966Z,98243.03
2023-01-13T05:51:10.326Z,98252.16
2023-01-13T05:53:37.319Z,98249.94
2023-01-13T05:56:05.558Z,98256.69
2023-01-13T05:58:32.197Z,98252.97
2023-01-13T06:01:09.147Z,98257.19
2023-01-13T06:03:36.676Z,98262.38
2023-01-13T06:06:04.167Z,98267.09
2023-01-13T06:08:31.572Z,98265.41
2023-01-13T06:10:58.303Z,98267.63
2023-01-13T06:13:27.949Z,98268.63
2023-01-13T06:15:59.243Z,98260.91
2023-01-13T06:18:26.716Z,98263.41
2023-01-13T06:20:53.462Z,98263.56
2023-01-13T06:23:20.099Z,98263.41
2023-01-13T06:25:49.756Z,98264.44
2023-01-13T06:28:16.438Z,98268.97
2023-01-13T06:30:47.858Z,98257.56
2023-01-13T06:33:17.793Z,98275.31
2023-01-13T06:35:50.242Z,98271.94
2023-01-13T06:38:19.423Z,98270.25
2023-01-13T06:40:46.716Z,98268.41
2023-01-13T06:43:16.927Z,98271.41
2023-01-13T06:45:49.413Z,98281.19
2023-01-13T06:48:17.658Z,98283.56
2023-01-13T06:50:44.627Z,98280.22
2023-01-13T06:53:11.456Z,98276.81
2023-01-13T06:55:38.068Z,98269.59
2023-01-13T06:58:05.411Z,98280.69
2023-01-13T07:00:38.000Z,98282.91
2023-01-13T07:03:10.241Z,98274.97
2023-01-13T07:05:37.485Z,98274.97
2023-01-13T07:08:04.905Z,98273.31
2023-01-13T07:10:32.610Z,98273.31
2023-01-13T07:13:23.519Z,98274.47
2023-01-13T07:15:57.657Z,98283.69
2023-01-13T07:18:27.248Z,98280.16
2023-01-13T07:21:09.137Z,98277.00
2023-01-13T07:23:44.934Z,98283.22
2023-01-13T07:26:11.695Z,98271.59
2023-01-13T07:28:39.401Z,98270.75
2023-01-13T07:31:14.196Z,98268.72
2023-01-13T07:33:40.833Z,98261.31
2023-01-13T07:36:08.044Z,98270.88
2023-01-13T07:38:35.344Z,98274.91
2023-01-13T07:41:20.809Z,98271.06
2023-01-13T07:43:48.024Z,98271.50
2023-01-13T07:46:14.772Z,98273.88
2023-01-13T07:48:41.520Z,98279.47
2023-01-13T07:51:10.517Z,98278.63
2023-01-13T07:53:37.920Z,98279.47
2023-01-13T07:56:06.480Z,98277.78
2023-01-13T07:58:35.338Z,98278.28
2023-01-13T08:01:08.183Z,98287.72
2023-01-13T08:03:35.119Z,98287.22
2023-01-13T08:06:02.197Z,98288.06
2023-01-13T08:08:28.825Z,98288.34
2023-01-13T08:10:59.089Z,98277.97
2023-01-13T08:13:26.107Z,98279.94
2023-01-13T08:15:58.685Z,98276.13
2023-01-13T08:18:25.495Z,98274.91
2023-01-13T08:20:52.852Z,98282.31
2023-01-13T08:23:20.880Z,98272.53
2023-01-13T08:25:48.367Z,98280.06
2023-01-13T08:28:16.993Z,98284.31
2023-01-13T08:30:44.040Z,98283.78
2023-01-13T08:33:12.340Z,98284.81
2023-01-13T08:35:40.415Z,98272.50
2023-01-13T08:38:08.099Z,98275.53
2023-01-13T08:40:34.856Z,98277.06
2023-01-13T08:43:01.771Z,98284.13
2023-01-13T08:45:28.432Z,98277.25
2023-01-13T08:47:55.073Z,98288.97
2023-01-13T08:50:21.787Z,98280.56
2023-01-13T08:52:48.584Z,98277.75
2023-01-13T08:55:15.198Z,98272.81
2023-01-13T08:57:41.822Z,98284.44
2023-01-13T09:00:09.001Z,98279.69
2023-01-13T09:02:36.195Z,98281.03
2023-01-13T09:05:03.944Z,98291.63
2023-01-13T09:07:31.045Z,98291.94
2023-01-13T09:09:57.814Z,98293.13
2023-01-13T09:12:43.891Z,98293.75
2023-01-13T09:15:10.939Z,98305.88
2023-01-13T09:17:37.547Z,98312.28
2023-01-13T09:20:05.408Z,98301.00
2023-01-13T09:22:32.019Z,98385.38
2023-01-13T09:24:58.822Z,98415.50
2023-01-13T09:27:25.580Z,98424.72
2023-01-13T09:29:52.260Z,98430.84
2023-01-13T09:32:18.975Z,98431.91
2023-01-13T09:35:00.879Z,98436.78
2023-01-13T09:37:34.220Z,98433.13
2023-01-13T09:40:02.100Z,98424.06
2023-01-13T09:43:02.791Z,98421.22
2023-01-13T09:45:42.573Z,98429.72
2023-01-13T09:48:27.986Z,98427.94
2023-01-13T09:51:03.724Z,98427.25
2023-01-13T09:53:45.842Z,98438.88
2023-01-13T09:56:12.547Z,98447.41
2023-01-13T09:58:39.278Z,98438.88
2023-01-13T10:01:20.656Z,98444.38
2023-01-13T10:03:49.390Z,98446.16
2023-01-13T10:06:34.859Z,98443.88
2023-01-13T10:09:01.946Z,98438.31
2023-01-13T10:12:01.083Z,98442.59
2023-01-13T10:14:48.808Z,98434.41
2023-01-13T10:17:33.320Z,98449.56
2023-01-13T10:20:12.626Z,98450.41
2023-01-13T10:23:06.505Z,98450.78
2023-01-13T10:25:56.374Z,98446.88
2023-01-13T10:28:25.356Z,98439.09
2023-01-13T10:30:52.462Z,98422.75
2023-01-13T10:33:28.551Z,98423.28
2023-01-13T10:36:03.588Z,98415.13
2023-01-13T10:38:40.462Z,98410.63
2023-01-13T10:41:27.808Z,98398.69
2023-01-13T10:44:01.773Z,98397.53
2023-01-13T10:46:29.482Z,98394.34
2023-01-13T10:48:59.223Z,98395.78
2023-01-13T10:51:38.050Z,98391.72
2023-01-13T10:54:13.961Z,98389.59
2023-01-13T10:56:43.290Z,98374.03
2023-01-13T10:59:28.893Z,98385.06
2023-01-13T11:01:58.708Z,98384.91
2023-01-13T11:04:28.543Z,98369.16
2023-01-13T11:06:56.333Z,98367.16
2023-01-13T11:09:25.169Z,98371.88
2023-01-13T11:11:55.894Z,98363.06
2023-01-13T11:14:39.431Z,98378.28
2023-01-13T11:17:33.804Z,98402.38
2023-01-13T11:20:17.787Z,98405.72
2023-01-13T11:22:51.218Z,98400.53
2023-01-13T11:25:24.184Z,98394.50
2023-01-13T11:28:05.551Z,98394.50
2023-01-13T11:30:42.486Z,98392.44
2023-01-13T11:33:15.434Z,98394.81
2023-01-13T11:35:45.072Z,98398.16
2023-01-13T11:38:31.696Z,98386.53
2023-01-13T11:41:08.819Z,98397.63
2023-01-13T11:43:42.228Z,98395.69
2023-01-13T11:46:10.475Z,98400.53
2023-01-13T11:48:41.314Z,98407.09
2023-01-13T11:51:13.841Z,98409.16
2023-01-13T11:54:00.201Z,98413.81
2023-01-13T11:56:35.837Z,98410.47
2023-01-13T11:59:11.320Z,98396.06
2023-01-13T12:01:56.084Z,98398.44
2023-01-13T12:04:50.697Z,98409.16
2023-01-13T12:07:27.177Z,98395.59
2023-01-13T12:10:09.874Z,98365.78
2023-01-13T12:13:01.019Z,98332.19
2023-01-13T12:15:48.749Z,98380.56
2023-01-13T12:19:01.666Z,98391.16
2023-01-13T12:21:34.169Z,98373.13
2023-01-13T12:24:00.838Z,98380.69
2023-01-13T12:26:32.638Z,98375.88
2023-01-13T12:29:11.297Z,98366.88
2023-01-13T12:31:40.754Z,98370.97
2023-01-13T12:34:19.651Z,98370.47
2023-01-13T12:37:10.672Z,98359.94
2023-01-13T12:39:55.062Z,98371.31
2023-01-13T12:42:51.650Z,98365.28
2023-01-13T12:45:30.468Z,98360.41
2023-01-13T12:47:58.169Z,98368.09
2023-01-13T12:50:24.825Z,98377.03
2023-01-13T12:53:01.069Z,98384.38
2023-01-13T12:55:34.905Z,98380.31
2023-01-13T12:58:04.644Z,98377.34
2023-01-13T13:00:35.383Z,98378.53
2023-01-13T13:03:10.935Z,98380.06
2023-01-13T13:05:55.832Z,98385.97
2023-01-13T13:08:32.371Z,98389.63
2023-01-13T13:11:38.060Z,98387.78
2023-01-13T13:14:10.223Z,98384.41
2023-01-13T13:16:47.213Z,98383.88
2023-01-13T13:19:22.732Z,98379.19
2023-01-13T13:22:14.329Z,98384.53
2023-01-13T13:25:02.213Z,98391.41
2023-01-13T13:27:31.741Z,98394.22
2023-01-13T13:29:58.271Z,98392.16
2023-01-13T13:32:39.803Z,98392.50
2023-01-13T13:35:09.406Z,98391.19
2023-01-13T13:38:19.161Z,98395.72
2023-01-13T13:41:06.179Z,98393.03
2023-01-13T13:43:59.089Z,98400.84
2023-01-13T13:46:49.793Z,98403.69
2023-01-13T13:49:22.416Z,98396.19
2023-01-13T13:51:54.801Z,98396.66
2023-01-13T13:54:22.749Z,98406.69
2023-01-13T13:56:51.086Z,98403.41
2023-01-13T13:59:26.599Z,98403.69
2023-01-13T14:02:00.925Z,98401.50
2023-01-13T14:04:31.285Z,98395.31
2023-01-13T14:07:01.191Z,98397.31
2023-01-13T14:09:29.190Z,98392.78
2023-01-13T14:12:04.548Z,98396.16
2023-01-13T14:14:31.139Z,98388.75
2023-01-13T14:16:58.726Z,98387.75
2023-01-13T14:19:32.415Z,98392.75
2023-01-13T14:22:02.116Z,98402.81
2023-01-13T14:24:29.888Z,98392.75
2023-01-13T14:27:17.461Z,98404.00
2023-01-13T14:29:45.023Z,98410.31
2023-01-13T14:32:18.280Z,98416.19
2023-01-13T14:34:45.005Z,98424.41
2023-01-13T14:37:27.878Z,98422.50
2023-01-13T14:39:54.662Z,98421.38
2023-01-13T14:42:22.157Z,98433.94
2023-01-13T14:44:50.958Z,98440.41
2023-01-13T14:47:23.821Z,98447.63
2023-01-13T14:49:52.922Z,98449.66
2023-01-13T14:52:23.005Z,98439.66
2023-01-13T14:54:58.461Z,98440.63
2023-01-13T14:57:25.402Z,98446.84
2023-01-13T15:00:02.201Z,98443.66
2023-01-13T15:02:34.045Z,98451.03
2023-01-13T15:05:19.345Z,98465.44
2023-01-13T15:07:50.446Z,98488.50
2023-01-13T15:10:38.955Z,98501.13
2023-01-13T15:13:06.681Z,98512.25
2023-01-13T15:15:39.365Z,98520.06
2023-01-13T15:18:12.611Z,98521.47
2023-01-13T15:20:40.727Z,98531.91
2023-01-13T15:23:07.454Z,98529.91
2023-01-13T15:25:39.477Z,98548.94
2023-01-13T15:28:08.230Z,98552.41
2023-01-13T15:30:34.837Z,98544.88
2023-01-13T15:33:01.579Z,98536.91
2023-01-13T15:35:29.181Z,98530.13
2023-01-13T15:37:57.264Z,98539.69
2023-01-13T15:40:32.307Z,98536.47
2023-01-13T15:43:17.699Z,98535.22
2023-01-13T15:46:04.644Z,98537.66
2023-01-13T15:48:32.842Z,98542.41
2023-01-13T15:51:00.405Z,98528.78
2023-01-13T15:53:28.089Z,98530.88
2023-01-13T15:55:57.846Z,98545.63
2023-01-13T15:58:28.410Z,98547.69
2023-01-13T16:00:55.505Z,98539.97
2023-01-13T16:03:22.499Z,98548.41
2023-01-13T16:05:49.281Z,98547.16
2023-01-13T16:08:19.401Z,98545.47
2023-01-13T16:10:47.424Z,98539.16
2023-01-13T16:13:15.733Z,98548.84
2023-01-13T16:15:45.507Z,98542.00
2023-01-13T16:18:26.335Z,98551.41
2023-01-13T16:20:55.013Z,98546.06
2023-01-13T16:23:22.862Z,98547.72
2023-01-13T16:25:50.550Z,98546.59
2023-01-13T16:28:26.130Z,98563.44
2023-01-13T16:30:52.962Z,98549.81
2023-01-13T16:33:19.862Z,98551.69
2023-01-13T16:36:10.933Z,98554.31
2023-01-13T16:38:33.203Z,98567.06
2023-01-13T16:40:59.813Z,98566.66
2023-01-13T16:43:27.749Z,98571.00
2023-01-13T16:45:54.499Z,98573.44
2023-01-13T16:48:22.688Z,98569.25
2023-01-13T16:50:49.476Z,98565.03
2023-01-13T16:53:16.121Z,98572.91
2023-01-13T16:55:43.790Z,98576.00
2023-01-13T16:58:19.422Z,98578.09
2023-01-13T17:00:47.425Z,98576.28
2023-01-13T17:03:15.464Z,98574.56
2023-01-13T17:05:44.055Z,98568.38
2023-01-13T17:08:17.670Z,98571.34
2023-01-13T17:10:45.346Z,98571.31
2023-01-13T17:13:16.238Z,98579.22
2023-01-13T17:15:43.961Z,98589.31
2023-01-13T17:18:11.513Z,98590.16
2023-01-13T17:20:38.110Z,98592.41
2023-01-13T17:23:04.716Z,98601.56
2023-01-13T17:25:31.377Z,98606.16
2023-01-13T17:27:58.109Z,98610.81
2023-01-13T17:30:24.765Z,98608.13
2023-01-13T17:32:51.474Z,98611.94
2023-01-13T17:35:22.852Z,98621.47
2023-01-13T17:37:49.550Z,98615.44
2023-01-13T17:40:17.030Z,98611.78
2023-01-13T17:42:44.827Z,98623.88
2023-01-13T17:45:12.363Z,98626.53
2023-01-13T17:47:38.970Z,98633.03
2023-01-13T17:50:06.089Z,98646.22
2023-01-13T17:52:34.349Z,98644.41
2023-01-13T17:55:01.117Z,98648.59
2023-01-13T17:57:28.030Z,98661.28
2023-01-13T17:59:54.775Z,98662.25
2023-01-13T18:02:21.570Z,98669.13
2023-01-13T18:04:48.302Z,98674.91
2023-01-13T18:07:14.956Z,98686.44
2023-01-13T18:09:42.658Z,98693.03
2023-01-13T18:12:09.357Z,98687.09
2023-01-13T18:14:36.038Z,98687.69
2023-01-13T18:17:02.806Z,98697.09
2023-01-13T18:19:47.924Z,98692.91
2023-01-13T18:22:33.284Z,98692.59
2023-01-13T18:25:18.103Z,98690.50
2023-01-13T18:27:44.765Z,98681.53
2023-01-13T18:30:13.745Z,98680.53
2023-01-13T18:32:40.781Z,98680.41
2023-01-13T18:35:10.237Z,98673.09
2023-01-13T18:37:39.915Z,98681.22
2023-01-13T18:40:09.457Z,98685.88
2023-01-13T18:42:54.077Z,98692.50
2023-01-13T18:45:31.734Z,98700.78
2023-01-13T18:48:02.239Z,98692.06
2023-01-13T18:50:30.331Z,98697.94
2023-01-13T18:52:57.002Z,98699.94
2023-01-13T18:55:24.610Z,98691.06
2023-01-13T18:57:51.465Z,98685.16
2023-01-13T19:00:20.705Z,98691.63
2023-01-13T19:02:50.495Z,98698.38
2023-01-13T19:05:17.147Z,98700.59
2023-01-13T19:07:50.322Z,98691.75
2023-01-13T19:10:17.954Z,98695.09
2023-01-13T19:12:44.632Z,98697.78
2023-01-13T19:15:11.544Z,98691.00
2023-01-13T19:17:38.238Z,98689.84
2023-01-13T19:20:05.284Z,98701.53
2023-01-13T19:22:34.146Z,98712.53
2023-01-13T19:25:02.221Z,98723.25
2023-01-13T19:27:29.272Z,98720.56
2023-01-13T19:30:03.588Z,98722.09
2023-01-13T19:32:32.628Z,98726.50
2023-01-13T19:34:59.652Z,98722.53
2023-01-13T19:37:31.367Z,98727.44
2023-01-13T19:39:59.321Z,98730.53
2023-01-13T19:42:44.722Z,98735.59
2023-01-13T19:45:29.051Z,98737.13
2023-01-13T19:47:57.563Z,98745.44
2023-01-13T19:50:24.858Z,98741.78
2023-01-13T19:52:51.634Z,98751.91
2023-01-13T19:55:19.753Z,98753.50
2023-01-13T19:57:46.670Z,98763.03
2023-01-13T20:00:20.277Z,98765.88
2023-01-13T20:02:49.453Z,98765.56
2023-01-13T20:05:21.251Z,98772.22
2023-01-13T20:07:49.740Z,98776.00
2023-01-13T20:10:18.502Z,98773.31
2023-01-13T20:12:45.213Z,98780.75
2023-01-13T20:15:11.816Z,98779.66
2023-01-13T20:17:38.527Z,98782.47
2023-01-13T20:20:05.423Z,98785.84
2023-01-13T20:22:32.208Z,98790.09
2023-01-13T20:24:58.760Z,98776.25
2023-01-13T20:27:25.454Z,98796.94
2023-01-13T20:29:52.137Z,98793.28
2023-01-13T20:32:18.750Z,98796.13
2023-01-13T20:34:45.473Z,98805.53
2023-01-13T20:37:12.094Z,98812.44
2023-01-13T20:39:41.044Z,98816.78
2023-01-13T20:42:27.288Z,98820.03
2023-01-13T20:44:53.928Z,98817.50
2023-01-13T20:47:20.698Z,98816.50
2023-01-13T20:49:47.505Z,98816.78
2023-01-13T20:52:14.606Z,98816.78
2023-01-13T20:54:41.817Z,98823.44
2023-01-13T20:57:10.457Z,98823.28
2023-01-13T20:59:38.252Z,98826.09
2023-01-13T21:02:07.343Z,98833.44
2023-01-13T21:04:34.032Z,98835.38
2023-01-13T21:07:00.624Z,98833.97
2023-01-13T21:09:27.376Z,98842.25
2023-01-13T21:12:12.931Z,98840.72
2023-01-13T21:14:58.312Z,98846.50
2023-01-13T21:17:43.605Z,98840.28
2023-01-13T21:20:12.368Z,98845.66
2023-01-13T21:22:39.460Z,98853.53
2023-01-13T21:25:06.799Z,98851.00
2023-01-13T21:27:34.672Z,98857.34
2023-01-13T21:30:01.253Z,98857.34
2023-01-13T21:32:27.948Z,98854.66
2023-01-13T21:34:54.727Z,98859.28
2023-01-13T21:37:22.089Z,98852.84
2023-01-13T21:39:49.235Z,98866.06
2023-01-13T21:42:35.399Z,98867.59
2023-01-13T21:45:20.997Z,98877.03
2023-01-13T21:47:50.518Z,98874.91
2023-01-13T21:50:22.649Z,98882.53
2023-01-13T21:52:52.175Z,98880.53
2023-01-13T21:55:20.878Z,98884.06
2023-01-13T21:57:48.864Z,98885.47
2023-01-13T22:00:17.231Z,98894.50
2023-01-13T22:02:44.108Z,98886.47
2023-01-13T22:05:12.410Z,98889.13
2023-01-13T22:07:40.341Z,98889.13
2023-01-13T22:10:10.839Z,98893.22
2023-01-13T22:12:38.050Z,98894.91
2023-01-13T22:15:05.296Z,98901.66
2023-01-13T22:17:32.356Z,98896.84
2023-01-13T22:20:00.230Z,98908.94
2023-01-13T22:22:28.600Z,98908.38
2023-01-13T22:24:55.516Z,98909.03
2023-01-13T22:27:25.534Z,98909.88
2023-01-13T22:29:53.259Z,98914.34
2023-01-13T22:32:20.987Z,98899.44
2023-01-13T22:34:48.130Z,98907.59
2023-01-13T22:37:15.161Z,98908.03
2023-01-13T22:39:41.823Z,98913.91
2023-01-13T22:42:10.155Z,98918.00
2023-01-13T22:44:37.004Z,98919.66
2023-01-13T22:47:03.969Z,98929.13
2023-01-13T22:49:31.252Z,98925.03
2023-01-13T22:51:57.867Z,98927.41
2023-01-13T22:54:24.556Z,98934.34
2023-01-13T22:56:51.199Z,98930.94
2023-01-13T22:59:17.804Z,98936.59
2023-01-13T23:01:44.518Z,98942.75
2023-01-13T23:04:15.596Z,98952.19
2023-01-13T23:06:42.413Z,98955.88
2023-01-13T23:09:09.995Z,98949.97
2023-01-13T23:11:37.018Z,98951.69
2023-01-13T23:14:06.918Z,98947.19
2023-01-13T23:16:36.868Z,98949.84
2023-01-13T23:19:05.062Z,98958.91
2023-01-13T23:21:34.271Z,98946.78
2023-01-13T23:24:00.932Z,98946.38
2023-01-13T23:26:29.255Z,98948.75
2023-01-13T23:29:00.548Z,98952.41
2023-01-13T23:31:27.575Z,98946.66
2023-01-13T23:33:54.332Z,98953.81
2023-01-13T23:36:23.644Z,98954.81
2023-01-13T23:38:51.925Z,98965.06
2023-01-13T23:41:21.713Z,98968.84
2023-01-13T23:43:52.674Z,98979.94
2023-01-13T23:46:20.296Z,98984.84
2023-01-13T23:48:47.117Z,98979.38
2023-01-13T23:51:14.036Z,98981.91
2023-01-13T23:53:44.087Z,98973.06
2023-01-13T23:56:17.108Z,98977.13
2023-01-13T23:58:44.649Z,98972.34
